sensor_id;sensor_type;location;lat;lon;timestamp;P1;durP1;ratioP1;P2;durP2;ratioP2
59516;SDS011;45342;42.662;27.718;2023-07-31T00:03:10;2.50;;;2.30;;
59516;SDS011;45342;42.662;27.718;2023-07-31T00:05:36;2.72;;;2.15;;
59516;SDS011;45342;42.662;27.718;2023-07-31T00:10:27;3.28;;;2.20;;
59516;SDS011;45342;42.662;27.718;2023-07-31T00:15:18;2.92;;;2.20;;
59516;SDS011;45342;42.662;27.718;2023-07-31T00:20:09;2.42;;;2.17;;
59516;SDS011;45342;42.662;27.718;2023-07-31T00:25:02;2.95;;;2.30;;
59516;SDS011;45342;42.662;27.718;2023-07-31T00:27:28;2.30;;;2.10;;
59516;SDS011;45342;42.662;27.718;2023-07-31T00:29:54;2.50;;;2.30;;
59516;SDS011;45342;42.662;27.718;2023-07-31T00:34:46;2.42;;;2.22;;
59516;SDS011;45342;42.662;27.718;2023-07-31T00:39:38;1.98;;;1.88;;
59516;SDS011;45342;42.662;27.718;2023-07-31T00:42:04;2.80;;;2.20;;
59516;SDS011;45342;42.662;27.718;2023-07-31T00:46:55;3.97;;;2.20;;
59516;SDS011;45342;42.662;27.718;2023-07-31T00:49:22;2.42;;;2.20;;
59516;SDS011;45342;42.662;27.718;2023-07-31T00:51:50;2.92;;;2.30;;
59516;SDS011;45342;42.662;27.718;2023-07-31T00:54:16;1.90;;;1.70;;
59516;SDS011;45342;42.662;27.718;2023-07-31T00:56:44;2.20;;;1.88;;
59516;SDS011;45342;42.662;27.718;2023-07-31T00:59:10;2.28;;;2.13;;
59516;SDS011;45342;42.662;27.718;2023-07-31T01:04:02;2.17;;;1.98;;
59516;SDS011;45342;42.662;27.718;2023-07-31T01:09:03;2.60;;;1.98;;
59516;SDS011;45342;42.662;27.718;2023-07-31T01:11:50;2.50;;;1.95;;
59516;SDS011;45342;42.662;27.718;2023-07-31T01:14:19;2.55;;;2.25;;
59516;SDS011;45342;42.662;27.718;2023-07-31T01:16:45;2.63;;;2.00;;
59516;SDS011;45342;42.662;27.718;2023-07-31T01:26:28;2.03;;;1.92;;
59516;SDS011;45342;42.662;27.718;2023-07-31T01:29:03;2.63;;;2.40;;
59516;SDS011;45342;42.662;27.718;2023-07-31T01:31:35;2.50;;;2.17;;
59516;SDS011;45342;42.662;27.718;2023-07-31T01:34:02;2.30;;;2.10;;
59516;SDS011;45342;42.662;27.718;2023-07-31T01:36:28;2.35;;;2.13;;
59516;SDS011;45342;42.662;27.718;2023-07-31T01:38:59;2.03;;;1.83;;
59516;SDS011;45342;42.662;27.718;2023-07-31T01:41:25;2.90;;;1.98;;
59516;SDS011;45342;42.662;27.718;2023-07-31T01:46:16;2.17;;;1.88;;
59516;SDS011;45342;42.662;27.718;2023-07-31T01:51:08;2.25;;;2.05;;
59516;SDS011;45342;42.662;27.718;2023-07-31T01:55:59;1.90;;;1.80;;
59516;SDS011;45342;42.662;27.718;2023-07-31T02:00:50;2.40;;;2.20;;
59516;SDS011;45342;42.662;27.718;2023-07-31T02:05:47;1.90;;;1.80;;
59516;SDS011;45342;42.662;27.718;2023-07-31T02:08:13;2.00;;;1.80;;
59516;SDS011;45342;42.662;27.718;2023-07-31T02:13:06;2.00;;;1.80;;
59516;SDS011;45342;42.662;27.718;2023-07-31T02:15:32;2.03;;;1.80;;
59516;SDS011;45342;42.662;27.718;2023-07-31T02:20:24;2.13;;;1.60;;
59516;SDS011;45342;42.662;27.718;2023-07-31T02:22:51;2.38;;;2.00;;
59516;SDS011;45342;42.662;27.718;2023-07-31T02:25:17;2.03;;;1.90;;
59516;SDS011;45342;42.662;27.718;2023-07-31T02:27:43;2.97;;;1.95;;
59516;SDS011;45342;42.662;27.718;2023-07-31T02:32:35;2.20;;;1.80;;
59516;SDS011;45342;42.662;27.718;2023-07-31T02:35:01;2.00;;;1.80;;
59516;SDS011;45342;42.662;27.718;2023-07-31T02:39:53;2.05;;;1.77;;
59516;SDS011;45342;42.662;27.718;2023-07-31T02:44:44;1.88;;;1.75;;
59516;SDS011;45342;42.662;27.718;2023-07-31T02:49:35;1.98;;;1.88;;
59516;SDS011;45342;42.662;27.718;2023-07-31T02:54:29;1.95;;;1.80;;
59516;SDS011;45342;42.662;27.718;2023-07-31T02:59:22;2.80;;;1.75;;
59516;SDS011;45342;42.662;27.718;2023-07-31T03:04:13;2.05;;;1.83;;
59516;SDS011;45342;42.662;27.718;2023-07-31T03:09:06;2.05;;;1.50;;
59516;SDS011;45342;42.662;27.718;2023-07-31T03:11:31;1.98;;;1.83;;
59516;SDS011;45342;42.662;27.718;2023-07-31T03:16:22;1.95;;;1.73;;
59516;SDS011;45342;42.662;27.718;2023-07-31T03:21:14;1.75;;;1.60;;
59516;SDS011;45342;42.662;27.718;2023-07-31T03:26:06;2.30;;;1.85;;
59516;SDS011;45342;42.662;27.718;2023-07-31T03:28:32;1.80;;;1.70;;
59516;SDS011;45342;42.662;27.718;2023-07-31T03:33:24;1.92;;;1.83;;
59516;SDS011;45342;42.662;27.718;2023-07-31T03:38:15;1.70;;;1.60;;
59516;SDS011;45342;42.662;27.718;2023-07-31T03:43:09;1.88;;;1.70;;
59516;SDS011;45342;42.662;27.718;2023-07-31T03:48:00;2.00;;;1.80;;
59516;SDS011;45342;42.662;27.718;2023-07-31T03:52:51;1.90;;;1.70;;
59516;SDS011;45342;42.662;27.718;2023-07-31T03:55:17;2.25;;;1.65;;
59516;SDS011;45342;42.662;27.718;2023-07-31T04:00:10;1.77;;;1.67;;
59516;SDS011;45342;42.662;27.718;2023-07-31T04:02:35;2.03;;;1.65;;
59516;SDS011;45342;42.662;27.718;2023-07-31T04:07:27;2.28;;;1.75;;
59516;SDS011;45342;42.662;27.718;2023-07-31T04:12:18;1.63;;;1.52;;
59516;SDS011;45342;42.662;27.718;2023-07-31T04:19:37;2.53;;;1.83;;
59516;SDS011;45342;42.662;27.718;2023-07-31T04:22:04;1.70;;;1.60;;
59516;SDS011;45342;42.662;27.718;2023-07-31T04:24:29;1.80;;;1.70;;
59516;SDS011;45342;42.662;27.718;2023-07-31T04:29:20;1.80;;;1.70;;
59516;SDS011;45342;42.662;27.718;2023-07-31T04:34:12;2.25;;;2.05;;
59516;SDS011;45342;42.662;27.718;2023-07-31T04:39:03;1.63;;;1.52;;
59516;SDS011;45342;42.662;27.718;2023-07-31T04:43:54;2.08;;;1.85;;
59516;SDS011;45342;42.662;27.718;2023-07-31T04:48:45;2.13;;;1.80;;
59516;SDS011;45342;42.662;27.718;2023-07-31T04:51:11;2.53;;;1.60;;
59516;SDS011;45342;42.662;27.718;2023-07-31T04:56:02;2.22;;;1.80;;
59516;SDS011;45342;42.662;27.718;2023-07-31T05:00:55;1.70;;;1.60;;
59516;SDS011;45342;42.662;27.718;2023-07-31T05:05:47;2.22;;;1.52;;
59516;SDS011;45342;42.662;27.718;2023-07-31T05:08:13;1.92;;;1.80;;
59516;SDS011;45342;42.662;27.718;2023-07-31T05:13:04;2.67;;;1.77;;
59516;SDS011;45342;42.662;27.718;2023-07-31T05:17:56;2.05;;;1.70;;
59516;SDS011;45342;42.662;27.718;2023-07-31T05:22:47;2.45;;;1.98;;
59516;SDS011;45342;42.662;27.718;2023-07-31T05:27:41;1.83;;;1.70;;
59516;SDS011;45342;42.662;27.718;2023-07-31T05:30:07;2.85;;;1.70;;
59516;SDS011;45342;42.662;27.718;2023-07-31T05:32:33;1.77;;;1.60;;
59516;SDS011;45342;42.662;27.718;2023-07-31T05:37:24;2.85;;;1.80;;
59516;SDS011;45342;42.662;27.718;2023-07-31T05:42:16;1.90;;;1.50;;
59516;SDS011;45342;42.662;27.718;2023-07-31T05:47:07;1.77;;;1.50;;
59516;SDS011;45342;42.662;27.718;2023-07-31T05:51:59;1.77;;;1.63;;
59516;SDS011;45342;42.662;27.718;2023-07-31T05:56:51;2.22;;;1.48;;
59516;SDS011;45342;42.662;27.718;2023-07-31T05:59:18;1.60;;;1.50;;
59516;SDS011;45342;42.662;27.718;2023-07-31T06:04:09;1.73;;;1.63;;
59516;SDS011;45342;42.662;27.718;2023-07-31T06:09:00;1.70;;;1.58;;
59516;SDS011;45342;42.662;27.718;2023-07-31T06:13:51;1.73;;;1.63;;
59516;SDS011;45342;42.662;27.718;2023-07-31T06:18:42;1.55;;;1.45;;
59516;SDS011;45342;42.662;27.718;2023-07-31T06:23:35;1.60;;;1.50;;
59516;SDS011;45342;42.662;27.718;2023-07-31T06:26:01;1.77;;;1.67;;
59516;SDS011;45342;42.662;27.718;2023-07-31T06:30:56;1.90;;;1.80;;
59516;SDS011;45342;42.662;27.718;2023-07-31T06:33:26;1.60;;;1.50;;
59516;SDS011;45342;42.662;27.718;2023-07-31T06:35:52;1.70;;;1.60;;
59516;SDS011;45342;42.662;27.718;2023-07-31T06:40:46;1.75;;;1.65;;
59516;SDS011;45342;42.662;27.718;2023-07-31T06:45:37;1.83;;;1.73;;
59516;SDS011;45342;42.662;27.718;2023-07-31T06:50:29;1.80;;;1.70;;
59516;SDS011;45342;42.662;27.718;2023-07-31T06:52:56;1.60;;;1.50;;
59516;SDS011;45342;42.662;27.718;2023-07-31T06:55:22;1.98;;;1.88;;
59516;SDS011;45342;42.662;27.718;2023-07-31T06:57:49;1.70;;;1.60;;
59516;SDS011;45342;42.662;27.718;2023-07-31T07:00:15;1.60;;;1.50;;
59516;SDS011;45342;42.662;27.718;2023-07-31T07:02:41;1.85;;;1.65;;
59516;SDS011;45342;42.662;27.718;2023-07-31T07:07:37;1.80;;;1.70;;
59516;SDS011;45342;42.662;27.718;2023-07-31T07:12:29;1.80;;;1.70;;
59516;SDS011;45342;42.662;27.718;2023-07-31T07:14:55;2.03;;;1.83;;
59516;SDS011;45342;42.662;27.718;2023-07-31T07:17:22;1.83;;;1.73;;
59516;SDS011;45342;42.662;27.718;2023-07-31T07:22:16;2.00;;;1.90;;
59516;SDS011;45342;42.662;27.718;2023-07-31T07:24:42;2.00;;;1.70;;
59516;SDS011;45342;42.662;27.718;2023-07-31T07:29:34;2.13;;;1.90;;
59516;SDS011;45342;42.662;27.718;2023-07-31T07:32:01;2.17;;;1.98;;
59516;SDS011;45342;42.662;27.718;2023-07-31T07:34:27;1.90;;;1.70;;
59516;SDS011;45342;42.662;27.718;2023-07-31T07:36:53;2.08;;;1.63;;
59516;SDS011;45342;42.662;27.718;2023-07-31T07:39:19;1.88;;;1.70;;
59516;SDS011;45342;42.662;27.718;2023-07-31T07:41:45;2.08;;;1.88;;
59516;SDS011;45342;42.662;27.718;2023-07-31T07:44:11;1.60;;;1.50;;
59516;SDS011;45342;42.662;27.718;2023-07-31T07:46:37;1.60;;;1.50;;
59516;SDS011;45342;42.662;27.718;2023-07-31T07:49:03;1.95;;;1.83;;
59516;SDS011;45342;42.662;27.718;2023-07-31T07:53:56;1.92;;;1.70;;
59516;SDS011;45342;42.662;27.718;2023-07-31T07:56:23;2.20;;;1.70;;
59516;SDS011;45342;42.662;27.718;2023-07-31T07:58:49;1.85;;;1.75;;
59516;SDS011;45342;42.662;27.718;2023-07-31T08:01:15;1.73;;;1.55;;
59516;SDS011;45342;42.662;27.718;2023-07-31T08:06:10;2.08;;;1.92;;
59516;SDS011;45342;42.662;27.718;2023-07-31T08:11:07;1.80;;;1.60;;
59516;SDS011;45342;42.662;27.718;2023-07-31T08:15:58;2.88;;;1.60;;
59516;SDS011;45342;42.662;27.718;2023-07-31T08:20:49;2.03;;;1.85;;
59516;SDS011;45342;42.662;27.718;2023-07-31T08:25:40;2.42;;;1.63;;
59516;SDS011;45342;42.662;27.718;2023-07-31T08:30:31;1.60;;;1.50;;
59516;SDS011;45342;42.662;27.718;2023-07-31T08:32:58;1.83;;;1.73;;
59516;SDS011;45342;42.662;27.718;2023-07-31T08:37:50;2.20;;;2.00;;
59516;SDS011;45342;42.662;27.718;2023-07-31T08:42:47;2.20;;;2.00;;
59516;SDS011;45342;42.662;27.718;2023-07-31T08:45:13;1.80;;;1.70;;
59516;SDS011;45342;42.662;27.718;2023-07-31T08:47:41;2.00;;;1.90;;
59516;SDS011;45342;42.662;27.718;2023-07-31T08:50:10;2.42;;;2.00;;
59516;SDS011;45342;42.662;27.718;2023-07-31T08:52:38;2.17;;;1.98;;
59516;SDS011;45342;42.662;27.718;2023-07-31T08:57:30;2.00;;;1.90;;
59516;SDS011;45342;42.662;27.718;2023-07-31T09:02:24;2.30;;;2.10;;
59516;SDS011;45342;42.662;27.718;2023-07-31T09:04:51;2.20;;;2.00;;
59516;SDS011;45342;42.662;27.718;2023-07-31T09:07:17;2.22;;;1.85;;
59516;SDS011;45342;42.662;27.718;2023-07-31T09:12:08;2.30;;;2.10;;
59516;SDS011;45342;42.662;27.718;2023-07-31T09:16:59;2.17;;;2.00;;
59516;SDS011;45342;42.662;27.718;2023-07-31T09:19:46;2.40;;;2.20;;
59516;SDS011;45342;42.662;27.718;2023-07-31T09:22:11;2.37;;;2.17;;
59516;SDS011;45342;42.662;27.718;2023-07-31T09:27:02;2.78;;;2.47;;
59516;SDS011;45342;42.662;27.718;2023-07-31T09:31:54;2.35;;;2.15;;
59516;SDS011;45342;42.662;27.718;2023-07-31T09:34:27;3.67;;;2.40;;
59516;SDS011;45342;42.662;27.718;2023-07-31T09:37:04;2.50;;;2.30;;
59516;SDS011;45342;42.662;27.718;2023-07-31T09:41:56;2.88;;;2.67;;
59516;SDS011;45342;42.662;27.718;2023-07-31T09:44:36;2.80;;;2.60;;
59516;SDS011;45342;42.662;27.718;2023-07-31T09:47:03;2.80;;;2.45;;
59516;SDS011;45342;42.662;27.718;2023-07-31T09:51:54;2.40;;;2.20;;
59516;SDS011;45342;42.662;27.718;2023-07-31T09:56:46;3.00;;;2.70;;
59516;SDS011;45342;42.662;27.718;2023-07-31T09:59:16;2.90;;;2.65;;
59516;SDS011;45342;42.662;27.718;2023-07-31T10:01:43;2.95;;;2.65;;
59516;SDS011;45342;42.662;27.718;2023-07-31T10:04:11;3.30;;;3.00;;
59516;SDS011;45342;42.662;27.718;2023-07-31T10:06:38;3.72;;;3.40;;
59516;SDS011;45342;42.662;27.718;2023-07-31T10:09:11;3.25;;;2.95;;
59516;SDS011;45342;42.662;27.718;2023-07-31T10:11:41;3.10;;;2.70;;
59516;SDS011;45342;42.662;27.718;2023-07-31T10:14:18;3.00;;;2.80;;
59516;SDS011;45342;42.662;27.718;2023-07-31T10:16:45;3.08;;;2.63;;
59516;SDS011;45342;42.662;27.718;2023-07-31T10:21:43;3.50;;;3.20;;
59516;SDS011;45342;42.662;27.718;2023-07-31T10:24:11;3.17;;;2.90;;
59516;SDS011;45342;42.662;27.718;2023-07-31T10:29:03;3.40;;;3.10;;
59516;SDS011;45342;42.662;27.718;2023-07-31T10:31:29;3.25;;;2.88;;
59516;SDS011;45342;42.662;27.718;2023-07-31T10:36:21;3.63;;;3.10;;
59516;SDS011;45342;42.662;27.718;2023-07-31T10:41:17;3.50;;;3.20;;
59516;SDS011;45342;42.662;27.718;2023-07-31T10:43:45;3.28;;;2.97;;
59516;SDS011;45342;42.662;27.718;2023-07-31T10:46:12;3.38;;;2.97;;
59516;SDS011;45342;42.662;27.718;2023-07-31T10:48:39;3.10;;;2.80;;
59516;SDS011;45342;42.662;27.718;2023-07-31T10:51:11;3.05;;;2.80;;
59516;SDS011;45342;42.662;27.718;2023-07-31T10:53:52;3.20;;;2.90;;
59516;SDS011;45342;42.662;27.718;2023-07-31T10:56:38;3.33;;;3.03;;
59516;SDS011;45342;42.662;27.718;2023-07-31T10:59:05;3.50;;;2.85;;
59516;SDS011;45342;42.662;27.718;2023-07-31T11:04:23;3.28;;;2.97;;
59516;SDS011;45342;42.662;27.718;2023-07-31T11:06:57;3.28;;;2.90;;
59516;SDS011;45342;42.662;27.718;2023-07-31T11:09:24;3.55;;;3.10;;
59516;SDS011;45342;42.662;27.718;2023-07-31T11:11:54;3.42;;;2.80;;
59516;SDS011;45342;42.662;27.718;2023-07-31T11:14:20;3.20;;;2.90;;
59516;SDS011;45342;42.662;27.718;2023-07-31T11:19:11;2.80;;;2.60;;
59516;SDS011;45342;42.662;27.718;2023-07-31T11:24:03;3.40;;;3.10;;
59516;SDS011;45342;42.662;27.718;2023-07-31T11:26:29;3.40;;;3.10;;
59516;SDS011;45342;42.662;27.718;2023-07-31T11:28:56;3.58;;;3.28;;
59516;SDS011;45342;42.662;27.718;2023-07-31T11:33:47;4.03;;;3.25;;
59516;SDS011;45342;42.662;27.718;2023-07-31T11:38:45;3.58;;;3.28;;
59516;SDS011;45342;42.662;27.718;2023-07-31T11:43:38;4.15;;;3.15;;
59516;SDS011;45342;42.662;27.718;2023-07-31T11:48:32;3.30;;;3.00;;
59516;SDS011;45342;42.662;27.718;2023-07-31T11:51:01;3.05;;;2.80;;
59516;SDS011;45342;42.662;27.718;2023-07-31T11:58:19;3.80;;;3.15;;
59516;SDS011;45342;42.662;27.718;2023-07-31T12:00:45;4.20;;;3.70;;
59516;SDS011;45342;42.662;27.718;2023-07-31T12:05:37;4.30;;;3.00;;
59516;SDS011;45342;42.662;27.718;2023-07-31T12:08:08;3.67;;;3.30;;
59516;SDS011;45342;42.662;27.718;2023-07-31T12:10:35;3.55;;;3.25;;
59516;SDS011;45342;42.662;27.718;2023-07-31T12:15:34;4.20;;;3.30;;
59516;SDS011;45342;42.662;27.718;2023-07-31T12:18:05;4.45;;;3.13;;
59516;SDS011;45342;42.662;27.718;2023-07-31T12:23:12;3.25;;;2.92;;
59516;SDS011;45342;42.662;27.718;2023-07-31T12:25:39;3.50;;;3.20;;
59516;SDS011;45342;42.662;27.718;2023-07-31T12:30:32;3.15;;;2.85;;
59516;SDS011;45342;42.662;27.718;2023-07-31T12:33:35;3.60;;;3.30;;
59516;SDS011;45342;42.662;27.718;2023-07-31T12:35:57;3.70;;;3.40;;
59516;SDS011;45342;42.662;27.718;2023-07-31T12:38:25;3.90;;;3.17;;
59516;SDS011;45342;42.662;27.718;2023-07-31T12:40:52;3.58;;;3.20;;
59516;SDS011;45342;42.662;27.718;2023-07-31T12:45:43;3.33;;;3.03;;
59516;SDS011;45342;42.662;27.718;2023-07-31T12:50:34;3.38;;;3.08;;
59516;SDS011;45342;42.662;27.718;2023-07-31T12:53:01;3.30;;;3.00;;
59516;SDS011;45342;42.662;27.718;2023-07-31T12:55:28;3.60;;;3.30;;
59516;SDS011;45342;42.662;27.718;2023-07-31T12:57:55;3.33;;;3.03;;
59516;SDS011;45342;42.662;27.718;2023-07-31T13:02:46;3.35;;;3.05;;
59516;SDS011;45342;42.662;27.718;2023-07-31T13:07:38;3.72;;;3.40;;
59516;SDS011;45342;42.662;27.718;2023-07-31T13:10:05;3.47;;;3.17;;
59516;SDS011;45342;42.662;27.718;2023-07-31T13:12:32;3.40;;;3.10;;
59516;SDS011;45342;42.662;27.718;2023-07-31T13:17:23;3.35;;;3.05;;
59516;SDS011;45342;42.662;27.718;2023-07-31T13:22:14;3.30;;;3.00;;
59516;SDS011;45342;42.662;27.718;2023-07-31T13:24:39;3.60;;;3.30;;
59516;SDS011;45342;42.662;27.718;2023-07-31T13:29:30;3.20;;;2.95;;
59516;SDS011;45342;42.662;27.718;2023-07-31T13:31:57;3.55;;;3.25;;
59516;SDS011;45342;42.662;27.718;2023-07-31T13:36:48;3.10;;;2.80;;
59516;SDS011;45342;42.662;27.718;2023-07-31T13:44:15;3.25;;;2.95;;
59516;SDS011;45342;42.662;27.718;2023-07-31T13:49:06;3.25;;;2.75;;
59516;SDS011;45342;42.662;27.718;2023-07-31T13:53:57;3.38;;;3.08;;
59516;SDS011;45342;42.662;27.718;2023-07-31T13:58:48;3.30;;;3.00;;
59516;SDS011;45342;42.662;27.718;2023-07-31T14:03:40;3.30;;;3.00;;
59516;SDS011;45342;42.662;27.718;2023-07-31T14:08:31;3.20;;;2.90;;
59516;SDS011;45342;42.662;27.718;2023-07-31T14:10:57;3.20;;;2.90;;
59516;SDS011;45342;42.662;27.718;2023-07-31T14:15:48;3.40;;;3.10;;
59516;SDS011;45342;42.662;27.718;2023-07-31T14:20:39;3.30;;;3.00;;
59516;SDS011;45342;42.662;27.718;2023-07-31T14:25:30;3.30;;;3.00;;
59516;SDS011;45342;42.662;27.718;2023-07-31T14:30:21;3.28;;;2.97;;
59516;SDS011;45342;42.662;27.718;2023-07-31T14:35:12;3.70;;;3.20;;
59516;SDS011;45342;42.662;27.718;2023-07-31T14:40:07;3.33;;;2.90;;
59516;SDS011;45342;42.662;27.718;2023-07-31T14:42:34;3.15;;;2.85;;
59516;SDS011;45342;42.662;27.718;2023-07-31T14:47:26;3.05;;;2.75;;
59516;SDS011;45342;42.662;27.718;2023-07-31T14:52:17;3.17;;;2.92;;
59516;SDS011;45342;42.662;27.718;2023-07-31T14:57:08;2.88;;;2.67;;
59516;SDS011;45342;42.662;27.718;2023-07-31T14:59:33;3.35;;;3.05;;
59516;SDS011;45342;42.662;27.718;2023-07-31T15:01:59;3.38;;;3.08;;
59516;SDS011;45342;42.662;27.718;2023-07-31T15:06:52;3.08;;;2.83;;
59516;SDS011;45342;42.662;27.718;2023-07-31T15:09:20;3.40;;;3.10;;
59516;SDS011;45342;42.662;27.718;2023-07-31T15:14:11;3.17;;;2.97;;
59516;SDS011;45342;42.662;27.718;2023-07-31T15:19:02;3.05;;;2.67;;
59516;SDS011;45342;42.662;27.718;2023-07-31T15:23:56;3.40;;;2.95;;
59516;SDS011;45342;42.662;27.718;2023-07-31T15:28:49;3.25;;;2.95;;
59516;SDS011;45342;42.662;27.718;2023-07-31T15:31:15;3.30;;;3.00;;
59516;SDS011;45342;42.662;27.718;2023-07-31T15:36:06;13.68;;;9.23;;
59516;SDS011;45342;42.662;27.718;2023-07-31T15:38:32;14.43;;;9.52;;
59516;SDS011;45342;42.662;27.718;2023-07-31T15:40:58;14.93;;;9.57;;
59516;SDS011;45342;42.662;27.718;2023-07-31T15:45:49;11.30;;;8.02;;
59516;SDS011;45342;42.662;27.718;2023-07-31T15:50:40;11.35;;;7.63;;
59516;SDS011;45342;42.662;27.718;2023-07-31T15:53:06;12.32;;;8.38;;
